sensor_id;sensor_type;location;lat;lon;timestamp;temperature;humidity
5881;DHT22;2966;52.598;10.928;2022-09-09T00:01:40;13.20;99.90
5881;DHT22;2966;52.598;10.928;2022-09-09T00:04:13;13.20;99.90
5881;DHT22;2966;52.598;10.928;2022-09-09T00:06:45;13.10;99.90
5881;DHT22;2966;52.598;10.928;2022-09-09T00:09:16;13.00;99.90
5881;DHT22;2966;52.598;10.928;2022-09-09T00:11:47;13.00;99.90
5881;DHT22;2966;52.598;10.928;2022-09-09T00:14:22;12.90;99.90
5881;DHT22;2966;52.598;10.928;2022-09-09T00:16:54;12.90;99.90
5881;DHT22;2966;52.598;10.928;2022-09-09T00:19:26;12.90;99.90
5881;DHT22;2966;52.598;10.928;2022-09-09T00:22:12;12.80;99.90
5881;DHT22;2966;52.598;10.928;2022-09-09T00:24:43;12.90;99.90
5881;DHT22;2966;52.598;10.928;2022-09-09T00:27:16;12.90;99.90
5881;DHT22;2966;52.598;10.928;2022-09-09T00:29:52;12.90;99.90
5881;DHT22;2966;52.598;10.928;2022-09-09T00:32:21;12.90;99.90
5881;DHT22;2966;52.598;10.928;2022-09-09T00:34:49;12.80;99.90
5881;DHT22;2966;52.598;10.928;2022-09-09T00:37:19;12.80;99.90
5881;DHT22;2966;52.598;10.928;2022-09-09T00:39:48;12.90;99.90
5881;DHT22;2966;52.598;10.928;2022-09-09T00:42:20;12.90;99.90
5881;DHT22;2966;52.598;10.928;2022-09-09T00:44:56;12.90;99.90
5881;DHT22;2966;52.598;10.928;2022-09-09T00:47:40;13.00;99.90
5881;DHT22;2966;52.598;10.928;2022-09-09T00:50:16;13.00;99.90
5881;DHT22;2966;52.598;10.928;2022-09-09T00:52:48;13.00;99.90
5881;DHT22;2966;52.598;10.928;2022-09-09T00:55:24;13.00;99.90
5881;DHT22;2966;52.598;10.928;2022-09-09T00:57:54;13.00;99.90
5881;DHT22;2966;52.598;10.928;2022-09-09T01:00:25;13.00;99.90
5881;DHT22;2966;52.598;10.928;2022-09-09T01:03:02;13.00;99.90
5881;DHT22;2966;52.598;10.928;2022-09-09T01:05:37;13.00;99.90
5881;DHT22;2966;52.598;10.928;2022-09-09T01:08:17;12.90;99.90
5881;DHT22;2966;52.598;10.928;2022-09-09T01:10:50;13.00;99.90
5881;DHT22;2966;52.598;10.928;2022-09-09T01:13:23;12.90;99.90
5881;DHT22;2966;52.598;10.928;2022-09-09T01:15:53;12.90;99.90
5881;DHT22;2966;52.598;10.928;2022-09-09T01:18:22;12.90;99.90
5881;DHT22;2966;52.598;10.928;2022-09-09T01:21:05;12.90;99.90
5881;DHT22;2966;52.598;10.928;2022-09-09T01:23:49;12.90;99.90
5881;DHT22;2966;52.598;10.928;2022-09-09T01:26:28;12.90;99.90
5881;DHT22;2966;52.598;10.928;2022-09-09T01:28:56;12.90;99.90
5881;DHT22;2966;52.598;10.928;2022-09-09T01:31:30;12.90;99.90
5881;DHT22;2966;52.598;10.928;2022-09-09T01:33:58;12.90;99.90
5881;DHT22;2966;52.598;10.928;2022-09-09T01:36:29;13.00;99.90
5881;DHT22;2966;52.598;10.928;2022-09-09T01:38:59;12.90;99.90
5881;DHT22;2966;52.598;10.928;2022-09-09T01:41:27;12.90;99.90
5881;DHT22;2966;52.598;10.928;2022-09-09T01:43:55;12.90;99.90
5881;DHT22;2966;52.598;10.928;2022-09-09T01:46:23;12.80;99.90
5881;DHT22;2966;52.598;10.928;2022-09-09T01:48:50;12.80;99.90
5881;DHT22;2966;52.598;10.928;2022-09-09T01:51:18;12.70;99.90
5881;DHT22;2966;52.598;10.928;2022-09-09T01:53:45;12.70;99.90
5881;DHT22;2966;52.598;10.928;2022-09-09T01:56:22;12.70;99.90
5881;DHT22;2966;52.598;10.928;2022-09-09T01:59:21;12.70;99.90
5881;DHT22;2966;52.598;10.928;2022-09-09T02:02:00;12.60;99.90
5881;DHT22;2966;52.598;10.928;2022-09-09T02:04:37;12.60;99.90
5881;DHT22;2966;52.598;10.928;2022-09-09T02:07:11;12.60;99.90
5881;DHT22;2966;52.598;10.928;2022-09-09T02:09:43;12.60;99.90
5881;DHT22;2966;52.598;10.928;2022-09-09T02:12:14;12.60;99.90
5881;DHT22;2966;52.598;10.928;2022-09-09T02:14:50;12.50;99.90
5881;DHT22;2966;52.598;10.928;2022-09-09T02:17:22;12.40;99.90
5881;DHT22;2966;52.598;10.928;2022-09-09T02:19:55;12.30;99.90
5881;DHT22;2966;52.598;10.928;2022-09-09T02:22:24;12.40;99.90
5881;DHT22;2966;52.598;10.928;2022-09-09T02:24:56;12.30;99.90
5881;DHT22;2966;52.598;10.928;2022-09-09T02:27:24;12.20;99.90
5881;DHT22;2966;52.598;10.928;2022-09-09T02:29:55;12.20;99.90
5881;DHT22;2966;52.598;10.928;2022-09-09T02:32:24;12.20;99.90
5881;DHT22;2966;52.598;10.928;2022-09-09T02:34:55;12.20;99.90
5881;DHT22;2966;52.598;10.928;2022-09-09T02:37:28;12.20;99.90
5881;DHT22;2966;52.598;10.928;2022-09-09T02:39:57;12.10;99.90
5881;DHT22;2966;52.598;10.928;2022-09-09T02:42:24;12.00;99.90
5881;DHT22;2966;52.598;10.928;2022-09-09T02:44:52;12.00;99.90
5881;DHT22;2966;52.598;10.928;2022-09-09T02:47:25;11.90;99.90
5881;DHT22;2966;52.598;10.928;2022-09-09T02:50:02;11.90;99.90
5881;DHT22;2966;52.598;10.928;2022-09-09T02:52:36;11.80;99.90
5881;DHT22;2966;52.598;10.928;2022-09-09T02:55:12;11.80;99.90
5881;DHT22;2966;52.598;10.928;2022-09-09T02:57:42;11.70;99.90
5881;DHT22;2966;52.598;10.928;2022-09-09T03:00:13;11.80;99.90
5881;DHT22;2966;52.598;10.928;2022-09-09T03:02:40;11.80;99.90
5881;DHT22;2966;52.598;10.928;2022-09-09T03:05:07;11.80;99.90
5881;DHT22;2966;52.598;10.928;2022-09-09T03:07:34;11.70;99.90
5881;DHT22;2966;52.598;10.928;2022-09-09T03:10:01;11.80;99.90
5881;DHT22;2966;52.598;10.928;2022-09-09T03:12:29;11.90;99.90
5881;DHT22;2966;52.598;10.928;2022-09-09T03:14:56;11.90;99.90
5881;DHT22;2966;52.598;10.928;2022-09-09T03:17:25;12.00;99.90
5881;DHT22;2966;52.598;10.928;2022-09-09T03:19:53;12.00;99.90
5881;DHT22;2966;52.598;10.928;2022-09-09T03:22:21;12.00;99.90
5881;DHT22;2966;52.598;10.928;2022-09-09T03:24:48;12.00;99.90
5881;DHT22;2966;52.598;10.928;2022-09-09T03:27:15;12.00;99.90
5881;DHT22;2966;52.598;10.928;2022-09-09T03:29:41;12.00;99.90
5881;DHT22;2966;52.598;10.928;2022-09-09T03:32:08;12.00;99.90
5881;DHT22;2966;52.598;10.928;2022-09-09T03:34:37;11.90;99.90
5881;DHT22;2966;52.598;10.928;2022-09-09T03:37:06;11.90;99.90
5881;DHT22;2966;52.598;10.928;2022-09-09T03:39:32;11.90;99.90
5881;DHT22;2966;52.598;10.928;2022-09-09T03:41:59;11.90;99.90
5881;DHT22;2966;52.598;10.928;2022-09-09T03:44:29;11.80;99.90
5881;DHT22;2966;52.598;10.928;2022-09-09T03:46:56;11.80;99.90
5881;DHT22;2966;52.598;10.928;2022-09-09T03:49:22;11.80;99.90
5881;DHT22;2966;52.598;10.928;2022-09-09T03:51:52;11.70;99.90
5881;DHT22;2966;52.598;10.928;2022-09-09T03:54:18;11.70;99.90
5881;DHT22;2966;52.598;10.928;2022-09-09T03:56:45;11.60;99.90
5881;DHT22;2966;52.598;10.928;2022-09-09T03:59:11;11.70;99.90
5881;DHT22;2966;52.598;10.928;2022-09-09T04:01:39;11.70;99.90
5881;DHT22;2966;52.598;10.928;2022-09-09T04:04:06;11.70;99.90
5881;DHT22;2966;52.598;10.928;2022-09-09T04:06:34;11.70;99.90
5881;DHT22;2966;52.598;10.928;2022-09-09T04:09:02;11.70;99.90
5881;DHT22;2966;52.598;10.928;2022-09-09T04:11:29;11.60;99.90
5881;DHT22;2966;52.598;10.928;2022-09-09T04:13:56;11.70;99.90
5881;DHT22;2966;52.598;10.928;2022-09-09T04:16:22;11.60;99.90
5881;DHT22;2966;52.598;10.928;2022-09-09T04:18:49;11.60;99.90
5881;DHT22;2966;52.598;10.928;2022-09-09T04:21:16;11.60;99.90
5881;DHT22;2966;52.598;10.928;2022-09-09T04:23:43;11.60;99.90
5881;DHT22;2966;52.598;10.928;2022-09-09T04:26:11;11.60;99.90
5881;DHT22;2966;52.598;10.928;2022-09-09T04:28:37;11.60;99.90
5881;DHT22;2966;52.598;10.928;2022-09-09T04:31:05;11.60;99.90
5881;DHT22;2966;52.598;10.928;2022-09-09T04:33:32;11.60;99.90
5881;DHT22;2966;52.598;10.928;2022-09-09T04:35:59;11.70;99.90
5881;DHT22;2966;52.598;10.928;2022-09-09T04:38:25;11.70;99.90
5881;DHT22;2966;52.598;10.928;2022-09-09T04:40:52;11.80;99.90
5881;DHT22;2966;52.598;10.928;2022-09-09T04:43:21;11.80;99.90
5881;DHT22;2966;52.598;10.928;2022-09-09T04:45:48;11.90;99.90
5881;DHT22;2966;52.598;10.928;2022-09-09T04:48:16;11.90;99.90
5881;DHT22;2966;52.598;10.928;2022-09-09T04:50:43;11.90;99.90
5881;DHT22;2966;52.598;10.928;2022-09-09T04:53:10;11.90;99.90
5881;DHT22;2966;52.598;10.928;2022-09-09T04:55:37;12.00;99.90
5881;DHT22;2966;52.598;10.928;2022-09-09T04:58:04;12.00;99.90
5881;DHT22;2966;52.598;10.928;2022-09-09T05:00:33;12.10;99.90
5881;DHT22;2966;52.598;10.928;2022-09-09T05:03:02;12.10;99.90
5881;DHT22;2966;52.598;10.928;2022-09-09T05:05:31;12.20;99.90
5881;DHT22;2966;52.598;10.928;2022-09-09T05:08:01;12.30;99.90
5881;DHT22;2966;52.598;10.928;2022-09-09T05:10:30;12.40;99.90
5881;DHT22;2966;52.598;10.928;2022-09-09T05:12:57;12.40;99.90
5881;DHT22;2966;52.598;10.928;2022-09-09T05:15:23;12.50;99.90
5881;DHT22;2966;52.598;10.928;2022-09-09T05:17:52;12.50;99.90
5881;DHT22;2966;52.598;10.928;2022-09-09T05:20:19;12.50;99.90
5881;DHT22;2966;52.598;10.928;2022-09-09T05:22:46;12.60;99.90
5881;DHT22;2966;52.598;10.928;2022-09-09T05:25:13;12.60;99.90
5881;DHT22;2966;52.598;10.928;2022-09-09T05:27:41;12.60;99.90
5881;DHT22;2966;52.598;10.928;2022-09-09T05:30:09;12.60;99.90
5881;DHT22;2966;52.598;10.928;2022-09-09T05:32:36;12.70;99.90
5881;DHT22;2966;52.598;10.928;2022-09-09T05:35:04;12.80;99.90
5881;DHT22;2966;52.598;10.928;2022-09-09T05:37:31;12.80;99.90
5881;DHT22;2966;52.598;10.928;2022-09-09T05:39:58;12.80;99.90
5881;DHT22;2966;52.598;10.928;2022-09-09T05:42:29;12.90;99.90
5881;DHT22;2966;52.598;10.928;2022-09-09T05:44:57;12.90;99.90
5881;DHT22;2966;52.598;10.928;2022-09-09T05:47:23;13.00;99.90
5881;DHT22;2966;52.598;10.928;2022-09-09T05:49:53;13.10;99.90
5881;DHT22;2966;52.598;10.928;2022-09-09T05:52:22;13.20;99.90
5881;DHT22;2966;52.598;10.928;2022-09-09T05:54:49;13.30;99.90
5881;DHT22;2966;52.598;10.928;2022-09-09T05:57:15;13.40;99.90
5881;DHT22;2966;52.598;10.928;2022-09-09T05:59:42;13.50;99.90
5881;DHT22;2966;52.598;10.928;2022-09-09T06:02:09;13.50;99.90
5881;DHT22;2966;52.598;10.928;2022-09-09T06:04:36;13.60;99.90
5881;DHT22;2966;52.598;10.928;2022-09-09T06:07:04;13.50;99.90
5881;DHT22;2966;52.598;10.928;2022-09-09T06:09:33;13.60;99.90
5881;DHT22;2966;52.598;10.928;2022-09-09T06:12:01;13.60;99.90
5881;DHT22;2966;52.598;10.928;2022-09-09T06:14:27;13.60;99.90
5881;DHT22;2966;52.598;10.928;2022-09-09T06:16:54;13.70;99.90
5881;DHT22;2966;52.598;10.928;2022-09-09T06:19:22;13.80;99.90
5881;DHT22;2966;52.598;10.928;2022-09-09T06:21:49;13.80;99.90
5881;DHT22;2966;52.598;10.928;2022-09-09T06:24:16;13.80;99.90
5881;DHT22;2966;52.598;10.928;2022-09-09T06:26:46;13.80;99.90
5881;DHT22;2966;52.598;10.928;2022-09-09T06:29:12;13.90;99.90
5881;DHT22;2966;52.598;10.928;2022-09-09T06:31:39;14.00;99.90
5881;DHT22;2966;52.598;10.928;2022-09-09T06:34:08;14.00;99.90
5881;DHT22;2966;52.598;10.928;2022-09-09T06:36:37;14.00;99.90
5881;DHT22;2966;52.598;10.928;2022-09-09T06:39:04;14.00;99.90
5881;DHT22;2966;52.598;10.928;2022-09-09T06:41:32;14.10;99.90
5881;DHT22;2966;52.598;10.928;2022-09-09T06:44:01;14.10;99.90
5881;DHT22;2966;52.598;10.928;2022-09-09T06:46:30;14.10;99.90
5881;DHT22;2966;52.598;10.928;2022-09-09T06:48:59;14.20;99.90
5881;DHT22;2966;52.598;10.928;2022-09-09T06:51:27;14.30;99.90
5881;DHT22;2966;52.598;10.928;2022-09-09T06:53:55;14.30;99.90
5881;DHT22;2966;52.598;10.928;2022-09-09T06:56:24;14.40;99.90
5881;DHT22;2966;52.598;10.928;2022-09-09T06:58:53;14.50;99.90
5881;DHT22;2966;52.598;10.928;2022-09-09T07:01:23;14.60;99.90
5881;DHT22;2966;52.598;10.928;2022-09-09T07:03:52;14.50;99.90
5881;DHT22;2966;52.598;10.928;2022-09-09T07:06:21;14.70;99.90
5881;DHT22;2966;52.598;10.928;2022-09-09T07:08:49;14.80;99.90
5881;DHT22;2966;52.598;10.928;2022-09-09T07:11:17;15.00;99.90
5881;DHT22;2966;52.598;10.928;2022-09-09T07:13:44;15.10;99.90
5881;DHT22;2966;52.598;10.928;2022-09-09T07:16:12;15.40;99.90
5881;DHT22;2966;52.598;10.928;2022-09-09T07:18:41;15.40;99.90
5881;DHT22;2966;52.598;10.928;2022-09-09T07:21:09;15.40;99.90
5881;DHT22;2966;52.598;10.928;2022-09-09T07:23:37;15.40;99.90
5881;DHT22;2966;52.598;10.928;2022-09-09T07:26:08;15.40;99.90
5881;DHT22;2966;52.598;10.928;2022-09-09T07:28:35;15.40;99.90
5881;DHT22;2966;52.598;10.928;2022-09-09T07:31:02;15.40;99.90
5881;DHT22;2966;52.598;10.928;2022-09-09T07:33:31;15.30;99.90
5881;DHT22;2966;52.598;10.928;2022-09-09T07:36:04;15.40;99.90
5881;DHT22;2966;52.598;10.928;2022-09-09T07:38:32;15.50;99.90
5881;DHT22;2966;52.598;10.928;2022-09-09T07:41:04;15.50;99.90
5881;DHT22;2966;52.598;10.928;2022-09-09T07:43:33;15.50;99.90
5881;DHT22;2966;52.598;10.928;2022-09-09T07:46:00;15.70;99.90
5881;DHT22;2966;52.598;10.928;2022-09-09T07:48:27;15.90;99.90
5881;DHT22;2966;52.598;10.928;2022-09-09T07:51:09;16.10;99.90
5881;DHT22;2966;52.598;10.928;2022-09-09T07:53:37;16.20;99.90
5881;DHT22;2966;52.598;10.928;2022-09-09T07:56:06;16.30;99.90
5881;DHT22;2966;52.598;10.928;2022-09-09T07:58:35;16.30;99.90
5881;DHT22;2966;52.598;10.928;2022-09-09T08:01:06;16.40;99.90
5881;DHT22;2966;52.598;10.928;2022-09-09T08:03:34;16.70;99.90
5881;DHT22;2966;52.598;10.928;2022-09-09T08:06:01;16.70;99.90
5881;DHT22;2966;52.598;10.928;2022-09-09T08:08:30;16.90;99.90
5881;DHT22;2966;52.598;10.928;2022-09-09T08:11:04;17.20;99.90
5881;DHT22;2966;52.598;10.928;2022-09-09T08:13:33;17.20;99.90
5881;DHT22;2966;52.598;10.928;2022-09-09T08:16:07;17.30;99.90
5881;DHT22;2966;52.598;10.928;2022-09-09T08:18:34;17.40;99.90
5881;DHT22;2966;52.598;10.928;2022-09-09T08:21:08;17.30;99.90
5881;DHT22;2966;52.598;10.928;2022-09-09T08:23:39;17.20;99.90
5881;DHT22;2966;52.598;10.928;2022-09-09T08:26:08;17.10;99.90
5881;DHT22;2966;52.598;10.928;2022-09-09T08:28:36;17.30;99.90
5881;DHT22;2966;52.598;10.928;2022-09-09T08:31:10;17.60;99.90
5881;DHT22;2966;52.598;10.928;2022-09-09T08:33:37;17.60;99.90
5881;DHT22;2966;52.598;10.928;2022-09-09T08:36:05;17.50;99.90
5881;DHT22;2966;52.598;10.928;2022-09-09T08:38:34;17.60;99.90
5881;DHT22;2966;52.598;10.928;2022-09-09T08:41:17;17.80;99.90
5881;DHT22;2966;52.598;10.928;2022-09-09T08:43:50;18.00;99.90
5881;DHT22;2966;52.598;10.928;2022-09-09T08:46:23;17.90;99.90
5881;DHT22;2966;52.598;10.928;2022-09-09T08:48:56;17.90;99.90
5881;DHT22;2966;52.598;10.928;2022-09-09T08:51:26;17.90;99.90
5881;DHT22;2966;52.598;10.928;2022-09-09T08:53:55;18.00;99.90
5881;DHT22;2966;52.598;10.928;2022-09-09T08:56:27;18.00;99.90
5881;DHT22;2966;52.598;10.928;2022-09-09T08:58:55;18.00;99.90
5881;DHT22;2966;52.598;10.928;2022-09-09T09:01:35;17.80;99.90
5881;DHT22;2966;52.598;10.928;2022-09-09T09:04:11;17.80;99.90
5881;DHT22;2966;52.598;10.928;2022-09-09T09:06:49;17.80;99.90
5881;DHT22;2966;52.598;10.928;2022-09-09T09:09:21;17.90;99.90
5881;DHT22;2966;52.598;10.928;2022-09-09T09:11:54;17.90;99.90
5881;DHT22;2966;52.598;10.928;2022-09-09T09:14:23;17.90;99.90
5881;DHT22;2966;52.598;10.928;2022-09-09T09:16:53;18.00;99.90
5881;DHT22;2966;52.598;10.928;2022-09-09T09:19:20;18.10;99.90
5881;DHT22;2966;52.598;10.928;2022-09-09T09:21:52;18.30;99.90
5881;DHT22;2966;52.598;10.928;2022-09-09T09:24:23;18.40;99.90
5881;DHT22;2966;52.598;10.928;2022-09-09T09:26:53;18.50;99.90
5881;DHT22;2966;52.598;10.928;2022-09-09T09:29:20;18.60;99.90
5881;DHT22;2966;52.598;10.928;2022-09-09T09:31:51;18.70;99.90
5881;DHT22;2966;52.598;10.928;2022-09-09T09:34:20;18.90;99.90
5881;DHT22;2966;52.598;10.928;2022-09-09T09:36:56;19.10;99.90
5881;DHT22;2966;52.598;10.928;2022-09-09T09:39:25;19.40;99.90
5881;DHT22;2966;52.598;10.928;2022-09-09T09:41:54;19.40;99.90
5881;DHT22;2966;52.598;10.928;2022-09-09T09:44:25;19.60;99.90
5881;DHT22;2966;52.598;10.928;2022-09-09T09:46:52;19.80;99.90
5881;DHT22;2966;52.598;10.928;2022-09-09T09:49:19;20.10;99.90
5881;DHT22;2966;52.598;10.928;2022-09-09T09:51:46;20.20;99.90
5881;DHT22;2966;52.598;10.928;2022-09-09T09:54:17;20.20;99.90
5881;DHT22;2966;52.598;10.928;2022-09-09T09:56:48;20.00;99.90
5881;DHT22;2966;52.598;10.928;2022-09-09T09:59:34;19.70;99.90
5881;DHT22;2966;52.598;10.928;2022-09-09T10:02:15;19.40;99.90
5881;DHT22;2966;52.598;10.928;2022-09-09T10:04:42;19.50;99.90
5881;DHT22;2966;52.598;10.928;2022-09-09T10:07:11;19.20;99.90
5881;DHT22;2966;52.598;10.928;2022-09-09T10:09:39;19.10;99.90
5881;DHT22;2966;52.598;10.928;2022-09-09T10:12:18;19.00;99.90
5881;DHT22;2966;52.598;10.928;2022-09-09T10:14:53;19.20;99.90
5881;DHT22;2966;52.598;10.928;2022-09-09T10:17:29;19.50;99.90
5881;DHT22;2966;52.598;10.928;2022-09-09T10:20:14;19.40;99.90
5881;DHT22;2966;52.598;10.928;2022-09-09T10:22:49;19.40;99.90
5881;DHT22;2966;52.598;10.928;2022-09-09T10:25:27;19.60;99.90
5881;DHT22;2966;52.598;10.928;2022-09-09T10:28:14;19.90;99.90
5881;DHT22;2966;52.598;10.928;2022-09-09T10:30:53;20.20;99.90
5881;DHT22;2966;52.598;10.928;2022-09-09T10:33:25;20.40;99.90
5881;DHT22;2966;52.598;10.928;2022-09-09T10:36:01;20.70;99.90
5881;DHT22;2966;52.598;10.928;2022-09-09T10:38:39;20.60;99.90
5881;DHT22;2966;52.598;10.928;2022-09-09T10:41:15;20.70;99.90
5881;DHT22;2966;52.598;10.928;2022-09-09T10:44:11;21.00;99.90
5881;DHT22;2966;52.598;10.928;2022-09-09T10:46:51;21.10;99.90
5881;DHT22;2966;52.598;10.928;2022-09-09T10:49:43;21.00;99.90
5881;DHT22;2966;52.598;10.928;2022-09-09T10:52:20;20.80;99.90
5881;DHT22;2966;52.598;10.928;2022-09-09T10:54:57;20.50;99.90
5881;DHT22;2966;52.598;10.928;2022-09-09T10:57:31;20.50;99.90
5881;DHT22;2966;52.598;10.928;2022-09-09T11:00:04;20.50;99.90
5881;DHT22;2966;52.598;10.928;2022-09-09T11:02:34;20.70;99.90
5881;DHT22;2966;52.598;10.928;2022-09-09T11:05:05;20.90;99.90
5881;DHT22;2966;52.598;10.928;2022-09-09T11:07:39;21.10;99.90
5881;DHT22;2966;52.598;10.928;2022-09-09T11:10:17;21.30;99.90
5881;DHT22;2966;52.598;10.928;2022-09-09T11:12:47;21.30;99.90
5881;DHT22;2966;52.598;10.928;2022-09-09T11:15:18;21.30;99.90
5881;DHT22;2966;52.598;10.928;2022-09-09T11:17:50;21.40;99.90
5881;DHT22;2966;52.598;10.928;2022-09-09T11:20:17;21.50;99.90
5881;DHT22;2966;52.598;10.928;2022-09-09T11:22:48;21.50;99.90
5881;DHT22;2966;52.598;10.928;2022-09-09T11:25:17;21.20;99.90
5881;DHT22;2966;52.598;10.928;2022-09-09T11:28:03;21.20;99.90
5881;DHT22;2966;52.598;10.928;2022-09-09T11:30:42;21.60;99.90
5881;DHT22;2966;52.598;10.928;2022-09-09T11:33:34;21.50;99.90
5881;DHT22;2966;52.598;10.928;2022-09-09T11:39:05;21.70;99.90
5881;DHT22;2966;52.598;10.928;2022-09-09T11:41:37;21.40;99.90
5881;DHT22;2966;52.598;10.928;2022-09-09T11:44:11;21.10;99.90
5881;DHT22;2966;52.598;10.928;2022-09-09T11:46:40;21.20;99.90
5881;DHT22;2966;52.598;10.928;2022-09-09T11:49:28;21.50;99.90
5881;DHT22;2966;52.598;10.928;2022-09-09T11:51:57;21.50;99.90
5881;DHT22;2966;52.598;10.928;2022-09-09T11:54:32;21.50;99.90
5881;DHT22;2966;52.598;10.928;2022-09-09T11:57:19;21.70;99.90
5881;DHT22;2966;52.598;10.928;2022-09-09T11:59:58;21.50;99.90
5881;DHT22;2966;52.598;10.928;2022-09-09T12:02:28;21.10;99.90
5881;DHT22;2966;52.598;10.928;2022-09-09T12:05:02;20.90;99.90
5881;DHT22;2966;52.598;10.928;2022-09-09T12:07:39;21.00;99.90
5881;DHT22;2966;52.598;10.928;2022-09-09T12:10:33;21.00;99.90
5881;DHT22;2966;52.598;10.928;2022-09-09T12:13:13;21.20;99.90
5881;DHT22;2966;52.598;10.928;2022-09-09T12:15:47;21.70;99.90
5881;DHT22;2966;52.598;10.928;2022-09-09T12:18:22;21.70;99.90
5881;DHT22;2966;52.598;10.928;2022-09-09T12:20:59;21.70;99.90
5881;DHT22;2966;52.598;10.928;2022-09-09T12:23:36;21.50;99.90
5881;DHT22;2966;52.598;10.928;2022-09-09T12:26:18;21.40;99.90
5881;DHT22;2966;52.598;10.928;2022-09-09T12:28:55;21.30;99.90
5881;DHT22;2966;52.598;10.928;2022-09-09T12:31:28;21.20;99.90
5881;DHT22;2966;52.598;10.928;2022-09-09T12:34:09;21.10;99.90
5881;DHT22;2966;52.598;10.928;2022-09-09T12:36:38;21.00;99.90
5881;DHT22;2966;52.598;10.928;2022-09-09T12:39:14;21.00;99.90
5881;DHT22;2966;52.598;10.928;2022-09-09T12:41:51;20.90;99.90
5881;DHT22;2966;52.598;10.928;2022-09-09T12:44:22;20.80;99.90
5881;DHT22;2966;52.598;10.928;2022-09-09T12:46:49;20.70;99.90
5881;DHT22;2966;52.598;10.928;2022-09-09T12:49:27;20.50;99.90
5881;DHT22;2966;52.598;10.928;2022-09-09T12:51:57;20.40;99.90
5881;DHT22;2966;52.598;10.928;2022-09-09T12:54:25;20.30;99.90
5881;DHT22;2966;52.598;10.928;2022-09-09T12:56:53;19.70;99.90
5881;DHT22;2966;52.598;10.928;2022-09-09T12:59:24;18.90;99.90
5881;DHT22;2966;52.598;10.928;2022-09-09T13:01:58;18.40;99.90
5881;DHT22;2966;52.598;10.928;2022-09-09T13:04:25;18.20;99.90
5881;DHT22;2966;52.598;10.928;2022-09-09T13:06:52;18.10;99.90
5881;DHT22;2966;52.598;10.928;2022-09-09T13:09:22;17.90;99.90
5881;DHT22;2966;52.598;10.928;2022-09-09T13:11:51;17.70;99.90
5881;DHT22;2966;52.598;10.928;2022-09-09T13:14:27;17.70;99.90
5881;DHT22;2966;52.598;10.928;2022-09-09T13:16:56;17.70;99.90
5881;DHT22;2966;52.598;10.928;2022-09-09T13:19:23;17.80;99.90
5881;DHT22;2966;52.598;10.928;2022-09-09T13:21:53;17.90;99.90
5881;DHT22;2966;52.598;10.928;2022-09-09T13:24:30;18.10;99.90
5881;DHT22;2966;52.598;10.928;2022-09-09T13:26:58;18.30;99.90
5881;DHT22;2966;52.598;10.928;2022-09-09T13:29:27;18.40;99.90
5881;DHT22;2966;52.598;10.928;2022-09-09T13:32:04;18.70;99.90
5881;DHT22;2966;52.598;10.928;2022-09-09T13:34:33;18.80;99.90
5881;DHT22;2966;52.598;10.928;2022-09-09T13:37:02;18.90;99.90
5881;DHT22;2966;52.598;10.928;2022-09-09T13:39:33;19.10;99.90
5881;DHT22;2966;52.598;10.928;2022-09-09T13:42:01;18.90;99.90
5881;DHT22;2966;52.598;10.928;2022-09-09T13:44:30;19.00;99.90
5881;DHT22;2966;52.598;10.928;2022-09-09T13:47:03;19.20;99.90
5881;DHT22;2966;52.598;10.928;2022-09-09T13:49:31;19.30;99.90
5881;DHT22;2966;52.598;10.928;2022-09-09T13:52:11;19.20;99.90
5881;DHT22;2966;52.598;10.928;2022-09-09T13:54:41;19.30;99.90
5881;DHT22;2966;52.598;10.928;2022-09-09T13:57:15;19.30;99.90
5881;DHT22;2966;52.598;10.928;2022-09-09T13:59:43;19.30;99.90
5881;DHT22;2966;52.598;10.928;2022-09-09T14:02:10;19.30;99.90
5881;DHT22;2966;52.598;10.928;2022-09-09T14:04:36;19.20;99.90
5881;DHT22;2966;52.598;10.928;2022-09-09T14:07:09;19.30;99.90
5881;DHT22;2966;52.598;10.928;2022-09-09T14:09:37;19.40;99.90
5881;DHT22;2966;52.598;10.928;2022-09-09T14:12:08;19.40;99.90
5881;DHT22;2966;52.598;10.928;2022-09-09T14:14:35;19.40;99.90
5881;DHT22;2966;52.598;10.928;2022-09-09T14:17:01;19.40;99.90
5881;DHT22;2966;52.598;10.928;2022-09-09T14:19:28;19.30;99.90
5881;DHT22;2966;52.598;10.928;2022-09-09T14:21:56;19.30;99.90
5881;DHT22;2966;52.598;10.928;2022-09-09T14:24:23;19.20;99.90
5881;DHT22;2966;52.598;10.928;2022-09-09T14:26:50;19.30;99.90
5881;DHT22;2966;52.598;10.928;2022-09-09T14:29:18;19.40;99.90
5881;DHT22;2966;52.598;10.928;2022-09-09T14:31:45;19.40;99.90
5881;DHT22;2966;52.598;10.928;2022-09-09T14:34:12;19.70;99.90
5881;DHT22;2966;52.598;10.928;2022-09-09T14:36:39;19.90;99.90
5881;DHT22;2966;52.598;10.928;2022-09-09T14:39:07;20.10;99.90
5881;DHT22;2966;52.598;10.928;2022-09-09T14:41:35;20.30;99.90
5881;DHT22;2966;52.598;10.928;2022-09-09T14:44:03;20.30;99.90
5881;DHT22;2966;52.598;10.928;2022-09-09T14:46:31;20.40;99.90
5881;DHT22;2966;52.598;10.928;2022-09-09T14:48:58;20.40;99.90
5881;DHT22;2966;52.598;10.928;2022-09-09T14:51:25;20.50;99.90
5881;DHT22;2966;52.598;10.928;2022-09-09T14:53:54;20.60;99.90
5881;DHT22;2966;52.598;10.928;2022-09-09T14:56:25;20.50;99.90
5881;DHT22;2966;52.598;10.928;2022-09-09T14:58:53;20.30;99.90
5881;DHT22;2966;52.598;10.928;2022-09-09T15:01:20;20.00;99.90
5881;DHT22;2966;52.598;10.928;2022-09-09T15:03:52;19.80;99.90
5881;DHT22;2966;52.598;10.928;2022-09-09T15:06:22;19.70;99.90
5881;DHT22;2966;52.598;10.928;2022-09-09T15:08:52;19.60;99.90
5881;DHT22;2966;52.598;10.928;2022-09-09T15:11:20;19.80;99.90
5881;DHT22;2966;52.598;10.928;2022-09-09T15:13:51;19.90;99.90
5881;DHT22;2966;52.598;10.928;2022-09-09T15:16:20;20.00;99.90
5881;DHT22;2966;52.598;10.928;2022-09-09T15:18:53;20.10;99.90
5881;DHT22;2966;52.598;10.928;2022-09-09T15:21:22;20.20;99.90
5881;DHT22;2966;52.598;10.928;2022-09-09T15:23:50;20.30;99.90
5881;DHT22;2966;52.598;10.928;2022-09-09T15:26:20;20.30;99.90
5881;DHT22;2966;52.598;10.928;2022-09-09T15:28:47;20.30;99.90
5881;DHT22;2966;52.598;10.928;2022-09-09T15:31:18;20.20;99.90
5881;DHT22;2966;52.598;10.928;2022-09-09T15:33:47;20.20;99.90
5881;DHT22;2966;52.598;10.928;2022-09-09T15:36:17;20.10;99.90
5881;DHT22;2966;52.598;10.928;2022-09-09T15:38:44;20.00;99.90
5881;DHT22;2966;52.598;10.928;2022-09-09T15:41:11;20.00;99.90
5881;DHT22;2966;52.598;10.928;2022-09-09T15:43:42;20.00;99.90
5881;DHT22;2966;52.598;10.928;2022-09-09T15:46:24;20.00;99.90
5881;DHT22;2966;52.598;10.928;2022-09-09T15:48:53;20.00;99.90
5881;DHT22;2966;52.598;10.928;2022-09-09T15:51:22;19.90;99.90
5881;DHT22;2966;52.598;10.928;2022-09-09T15:53:53;19.80;99.90
5881;DHT22;2966;52.598;10.928;2022-09-09T15:56:20;19.80;99.90
5881;DHT22;2966;52.598;10.928;2022-09-09T15:58:47;19.70;99.90
5881;DHT22;2966;52.598;10.928;2022-09-09T16:01:14;19.70;99.90
5881;DHT22;2966;52.598;10.928;2022-09-09T16:03:42;19.70;99.90
5881;DHT22;2966;52.598;10.928;2022-09-09T16:06:12;19.70;99.90
5881;DHT22;2966;52.598;10.928;2022-09-09T16:08:42;19.60;99.90
5881;DHT22;2966;52.598;10.928;2022-09-09T16:11:11;19.60;99.90